Time;durP1;ratioP1;P1;durP2;ratioP2;P2;SDS_P1;SDS_P2;PMS_P1;PMS_P2;Temp;Humidity;BMP_temperature;BMP_pressure;BME280_temperature;BME280_humidity;BME280_pressure;Samples;Min_cycle;Max_cycle;Signal;HPM_P1;HPM_P2
2021/05/06 00:33:38;;;;;;;14.55;6.75;;;5.00;99.90;;;5.99;80.79;99848.00;6183923;23;20071;-80
2021/05/06 00:36:04;;;;;;;9.18;6.20;;;5.00;99.90;;;5.95;80.28;99844.31;6157556;23;20009;-81
2021/05/06 00:38:37;;;;;;;12.18;6.47;;;5.00;99.90;;;6.06;80.54;99854.59;6184200;23;20001;-80
2021/05/06 00:41:26;;;;;;;14.35;7.05;;;5.00;99.90;;;6.12;80.10;99844.91;6183897;23;20321;-79
2021/05/06 00:57:09;;;;;;;10.90;7.15;;;5.00;99.90;;;6.11;80.87;99823.88;6197068;23;20019;-79
2021/05/06 01:05:16;;;;;;;11.50;8.00;;;4.90;99.90;;;6.19;81.08;99831.25;6213233;23;20024;-79
2021/05/06 01:07:52;;;;;;;10.55;7.07;;;4.90;99.90;;;6.19;81.21;99822.94;6212329;23;20000;-79
2021/05/06 01:12:46;;;;;;;14.52;7.97;;;4.90;99.90;;;6.09;81.11;99817.06;6214520;23;19950;-81
2021/05/06 01:15:12;;;;;;;12.88;7.60;;;4.90;99.90;;;6.13;80.78;99804.13;6207922;23;20014;-81
2021/05/06 01:17:38;;;;;;;14.40;8.10;;;4.90;99.90;;;6.04;81.88;99804.22;6184483;23;20020;-80
2021/05/06 01:20:07;;;;;;;12.20;7.90;;;4.90;99.90;;;5.97;81.81;99794.91;6187998;23;20009;-79
2021/05/06 01:22:33;;;;;;;12.55;7.70;;;4.80;99.90;;;5.94;81.61;99796.38;6196536;23;20075;-79
2021/05/06 01:25:00;;;;;;;15.43;8.38;;;4.80;99.90;;;5.79;81.45;99788.75;6188298;23;20009;-80
2021/05/06 01:27:49;;;;;;;13.75;7.65;;;4.80;99.90;;;5.67;81.87;99791.53;6187136;23;20001;-77
2021/05/06 01:30:26;;;;;;;14.20;7.80;;;4.70;99.90;;;5.69;82.06;99786.44;6167311;23;20321;-79
2021/05/06 01:33:01;;;;;;;14.68;7.97;;;4.60;99.90;;;5.65;82.52;99782.78;6160015;23;20157;-80
2021/05/06 01:46:31;;;;;;;10.25;7.70;;;4.60;99.90;;;5.53;81.97;99760.59;6196593;23;20016;-79
2021/05/06 01:49:29;;;;;;;15.35;7.80;;;4.60;99.90;;;5.51;81.90;99757.38;6184909;23;20071;-80
2021/05/06 02:00:19;;;;;;;12.77;8.93;;;4.50;99.90;;;5.50;81.30;99739.94;6196562;23;20442;-79
2021/05/06 02:02:49;;;;;;;12.52;8.70;;;4.50;99.90;;;5.36;81.98;99739.50;6187023;23;20423;-81
2021/05/06 02:05:19;;;;;;;11.55;9.05;;;4.50;99.90;;;5.35;82.01;99737.06;6159770;23;20092;-78
2021/05/06 02:07:46;;;;;;;12.52;8.80;;;4.50;99.90;;;5.35;82.28;99743.41;6186730;23;20009;-82
2021/05/06 02:10:20;;;;;;;12.43;9.38;;;4.40;99.90;;;5.31;81.98;99734.16;6186173;23;20017;-82
2021/05/06 02:12:45;;;;;;;11.02;9.02;;;4.40;99.90;;;5.30;82.29;99730.56;6184650;23;20037;-79
2021/05/06 02:15:22;;;;;;;15.50;10.02;;;4.30;99.90;;;5.23;83.08;99719.25;6186197;23;20015;-79
2021/05/06 02:17:48;;;;;;;14.32;9.70;;;4.30;99.90;;;5.26;82.76;99729.69;6186433;23;20015;-78
2021/05/06 02:20:16;;;;;;;15.65;10.35;;;4.30;99.90;;;5.31;82.51;99726.66;6160067;23;20447;-79
2021/05/06 02:22:46;;;;;;;13.82;10.38;;;4.40;99.90;;;5.33;82.00;99721.59;6159474;23;20004;-79
2021/05/06 02:25:13;;;;;;;14.75;10.10;;;4.40;99.90;;;5.44;80.91;99716.41;6185693;23;20001;-82
2021/05/06 02:27:39;;;;;;;14.68;10.25;;;4.40;99.90;;;5.39;81.97;99715.84;6184698;23;20232;-81
2021/05/06 02:30:06;;;;;;;14.27;8.57;;;4.50;99.90;;;5.55;80.20;99709.25;6185562;23;20005;-80
2021/05/06 02:32:32;;;;;;;12.25;9.55;;;4.50;99.90;;;5.52;80.26;99709.91;6184225;23;20009;-80
2021/05/06 02:34:58;;;;;;;10.73;8.65;;;4.60;99.90;;;5.46;80.28;99703.00;6159764;23;20016;-81
2021/05/06 02:37:26;;;;;;;12.75;9.63;;;4.60;99.90;;;5.60;80.39;99711.78;6160087;23;20296;-81
2021/05/06 02:39:53;;;;;;;11.43;8.88;;;4.70;99.90;;;5.67;79.74;99702.88;6185390;23;20001;-78
2021/05/06 02:42:20;;;;;;;13.57;8.73;;;4.70;99.90;;;5.76;79.32;99709.09;6184187;23;20623;-80
2021/05/06 02:44:46;;;;;;;15.27;9.60;;;4.80;99.90;;;5.67;80.37;99719.50;6159382;23;20092;-81
2021/05/06 02:47:14;;;;;;;13.13;9.73;;;4.80;99.90;;;5.87;79.20;99718.59;6160095;23;20091;-80
2021/05/06 02:49:44;;;;;;;13.55;9.13;;;4.90;99.90;;;5.85;80.13;99715.31;6187173;23;20073;-80
2021/05/06 02:52:16;;;;;;;14.02;9.75;;;4.90;99.90;;;5.94;81.15;99718.00;6158295;23;20075;-82
2021/05/06 02:54:46;;;;;;;14.45;9.55;;;4.90;99.90;;;5.99;81.76;99718.56;6183792;23;20001;-80
2021/05/06 02:57:33;;;;;;;15.05;9.68;;;4.80;99.90;;;5.96;82.43;99712.91;6184477;23;20012;-82
2021/05/06 03:02:50;;;;;;;14.13;10.65;;;4.80;99.90;;;5.97;82.91;99709.00;6186163;23;20020;-82
2021/05/06 03:05:21;;;;;;;14.63;9.50;;;4.80;99.90;;;5.94;82.77;99709.69;6160000;23;20365;-80
2021/05/06 03:07:58;;;;;;;17.48;11.18;;;4.70;99.90;;;5.91;83.04;99710.38;6186912;23;20435;-81
2021/05/06 03:24:21;;;;;;;12.40;8.05;;;4.80;99.90;;;5.98;83.04;99699.50;6205821;23;20126;-82
2021/05/06 03:26:47;;;;;;;9.13;5.97;;;4.90;99.90;;;5.93;82.92;99697.78;6166279;23;20491;-83
2021/05/06 03:29:29;;;;;;;7.75;5.75;;;5.00;99.90;;;6.13;81.97;99698.78;6184389;23;20015;-79
2021/05/06 03:32:09;;;;;;;7.97;5.22;;;5.10;99.90;;;6.20;82.40;99704.50;6183872;23;20013;-81
2021/05/06 03:43:14;;;;;;;8.10;5.75;;;5.20;99.90;;;6.18;84.06;99687.44;6186128;23;20059;-81
2021/05/06 03:48:38;;;;;;;8.68;5.55;;;5.20;99.90;;;6.20;84.03;99685.91;6197601;23;20045;-80
2021/05/06 04:13:22;;;;;;;11.07;7.13;;;5.20;99.90;;;6.09;84.71;99690.34;6184898;23;20016;-82
2021/05/06 04:18:34;;;;;;;9.25;7.38;;;5.20;99.90;;;6.21;84.80;99693.06;6186813;23;20067;-82
2021/05/06 04:29:43;;;;;;;12.25;7.55;;;5.20;99.90;;;6.34;83.97;99702.16;6196829;23;20454;-79
2021/05/06 04:37:14;;;;;;;11.82;8.05;;;5.30;99.90;;;6.34;84.51;99707.69;6186936;23;20143;-79
2021/05/06 04:39:50;;;;;;;15.15;8.68;;;5.30;99.90;;;6.37;84.39;99701.44;6194008;23;20005;-83
2021/05/06 04:55:48;;;;;;;11.88;8.13;;;5.50;99.90;;;6.49;84.77;99704.16;6187012;23;20378;-80
2021/05/06 04:58:47;;;;;;;11.55;8.38;;;5.50;99.90;;;6.61;83.46;99703.31;6184429;23;20016;-80
2021/05/06 05:04:28;;;;;;;14.43;9.02;;;5.50;99.90;;;6.63;83.87;99710.13;6217504;23;20023;-82
2021/05/06 05:07:04;;;;;;;15.20;7.70;;;5.50;99.90;;;6.65;83.31;99706.97;6206762;23;20009;-81
2021/05/06 05:25:08;;;;;;;12.20;8.32;;;5.70;99.90;;;6.85;83.25;99714.28;6194333;23;20099;-81
2021/05/06 05:27:35;;;;;;;10.77;7.15;;;5.70;99.90;;;6.86;83.19;99711.16;6195833;23;20041;-82
2021/05/06 05:30:01;;;;;;;12.25;8.10;;;5.70;99.90;;;6.75;83.49;99720.34;6169862;23;20327;-80
2021/05/06 05:32:27;;;;;;;14.27;8.15;;;5.80;99.90;;;6.84;83.05;99716.22;6189660;23;20035;-82
2021/05/06 05:37:22;;;;;;;10.40;7.60;;;5.70;99.90;;;6.76;83.16;99720.00;6187626;23;20039;-81
2021/05/06 05:40:03;;;;;;;13.13;7.55;;;5.80;99.90;;;6.93;82.56;99718.06;6187175;23;20078;-80
2021/05/06 05:55:26;;;;;;;13.25;9.18;;;5.80;99.90;;;6.99;83.16;99714.66;6192790;23;20016;-80
2021/05/06 05:57:52;;;;;;;12.40;9.52;;;5.90;99.90;;;7.08;82.46;99715.28;6191206;23;20350;-81
2021/05/06 06:00:20;;;;;;;17.50;10.10;;;5.90;99.90;;;7.12;82.46;99723.72;6164504;23;20008;-79
2021/05/06 06:02:47;;;;;;;16.90;11.82;;;5.90;99.90;;;6.86;82.79;99732.53;6192938;23;20032;-81
2021/05/06 06:05:13;;;;;;;15.65;11.45;;;5.90;99.90;;;7.07;81.86;99719.22;6192389;23;20368;-80
2021/05/06 06:07:39;;;;;;;18.27;13.70;;;5.90;99.90;;;7.01;81.74;99728.16;6191579;23;20366;-79
2021/05/06 06:10:06;;;;;;;18.52;14.32;;;5.90;99.90;;;7.03;82.20;99732.19;6190776;23;20067;-79
2021/05/06 06:12:32;;;;;;;18.02;14.15;;;5.90;99.90;;;6.97;81.95;99730.06;6164892;23;20013;-78
2021/05/06 06:15:04;;;;;;;16.80;12.80;;;5.90;99.90;;;7.12;81.14;99732.84;6164913;23;20005;-79
2021/05/06 06:17:37;;;;;;;18.17;12.75;;;5.90;99.90;;;7.09;81.93;99721.66;6192217;23;20032;-80
2021/05/06 06:20:04;;;;;;;18.48;14.02;;;6.00;99.90;;;7.20;80.61;99733.81;6193763;23;20313;-82
2021/05/06 06:22:31;;;;;;;19.02;14.27;;;6.00;99.90;;;7.19;81.01;99740.56;6194103;23;20480;-80
2021/05/06 06:24:58;;;;;;;18.05;13.90;;;6.00;99.90;;;7.21;81.58;99736.25;6170568;23;20032;-81
2021/05/06 06:27:24;;;;;;;19.20;14.07;;;6.00;99.90;;;7.26;81.38;99738.75;6210334;23;20009;-81
2021/05/06 06:29:50;;;;;;;20.30;14.00;;;6.10;99.90;;;7.46;80.96;99739.66;6196159;23;20016;-80
2021/05/06 06:32:17;;;;;;;21.30;13.00;;;6.20;99.90;;;7.59;80.42;99743.13;6191828;23;20012;-80
2021/05/06 06:34:43;;;;;;;20.50;15.10;;;6.30;99.90;;;7.66;79.15;99734.97;6171101;23;20422;-80
2021/05/06 06:37:10;;;;;;;18.75;14.15;;;6.40;99.90;;;7.84;78.23;99744.53;6173801;23;20016;-80
2021/05/06 06:39:40;;;;;;;16.58;12.98;;;6.50;99.90;;;7.95;78.55;99740.84;6202120;23;20005;-80
2021/05/06 06:42:11;;;;;;;18.35;13.23;;;6.60;99.90;;;8.00;78.23;99755.63;6172084;23;20009;-80
2021/05/06 06:44:38;;;;;;;19.13;12.23;;;6.60;99.90;;;8.01;78.18;99760.03;6172958;23;20028;-80
2021/05/06 06:47:08;;;;;;;18.15;13.65;;;6.70;99.90;;;7.84;78.48;99748.13;6169058;23;20032;-79
2021/05/06 06:49:40;;;;;;;20.25;13.00;;;6.60;99.90;;;7.94;77.90;99752.31;6192287;23;20005;-81
2021/05/06 06:52:11;;;;;;;18.13;13.05;;;6.70;99.90;;;8.11;77.53;99751.94;6167029;23;20140;-78
2021/05/06 06:54:40;;;;;;;17.08;12.90;;;6.80;99.90;;;8.01;78.24;99746.13;6166340;23;20005;-81
2021/05/06 06:57:08;;;;;;;15.48;11.77;;;6.80;99.90;;;8.15;77.27;99747.25;6172715;23;20342;-79
2021/05/06 06:59:35;;;;;;;18.33;12.57;;;6.80;99.90;;;8.17;77.41;99744.91;6190930;23;20362;-80
2021/05/06 07:02:01;;;;;;;19.27;12.63;;;6.90;99.90;;;8.38;76.79;99745.38;6191246;23;20009;-80
2021/05/06 07:04:49;;;;;;;17.08;12.43;;;7.00;99.90;;;8.36;75.91;99746.94;6194101;23;20009;-79
2021/05/06 07:07:22;;;;;;;14.50;11.88;;;7.10;99.90;;;8.50;75.45;99743.66;6192656;23;20040;-82
2021/05/06 07:10:04;;;;;;;13.10;11.73;;;7.10;99.90;;;8.46;75.61;99740.78;6193541;23;20047;-79
2021/05/06 07:12:37;;;;;;;16.13;12.05;;;7.20;99.90;;;8.41;75.50;99746.66;6192227;23;20104;-78
2021/05/06 07:15:09;;;;;;;16.23;12.48;;;7.20;99.90;;;8.48;75.20;99739.25;6217310;23;20016;-80
2021/05/06 07:17:52;;;;;;;17.20;13.27;;;7.20;99.90;;;8.28;75.16;99747.97;6194442;23;20419;-78
2021/05/06 07:20:26;;;;;;;16.92;12.20;;;7.10;99.90;;;8.10;76.44;99739.19;6192833;23;20005;-79
2021/05/06 07:22:54;;;;;;;15.07;12.07;;;7.00;99.90;;;8.08;76.74;99758.22;6190518;23;20009;-79
2021/05/06 07:25:26;;;;;;;14.30;11.35;;;7.00;99.90;;;8.28;75.44;99747.97;6192268;23;20005;-78
2021/05/06 07:28:08;;;;;;;;;;;;;;;;;;;;;
2021/05/06 07:30:50;;;;;;;17.05;12.30;;;7.00;99.90;;;8.26;74.84;99748.28;6194129;23;20044;-80
2021/05/06 07:33:23;;;;;;;18.25;13.48;;;7.10;99.90;;;8.48;74.13;99750.38;6193787;23;20059;-80
2021/05/06 07:35:52;;;;;;;17.90;12.10;;;7.10;99.90;;;8.77;74.30;99754.53;6216107;23;20016;-79
2021/05/06 07:38:31;;;;;;;14.90;12.80;;;7.30;99.90;;;8.89;73.66;99748.81;6190066;23;20009;-79
2021/05/06 07:41:04;;;;;;;19.05;12.07;;;7.50;99.90;;;9.10;72.86;99750.38;6192704;23;20005;-80
2021/05/06 07:43:38;;;;;;;17.50;11.43;;;7.80;99.90;;;9.24;71.10;99756.22;6194638;23;20039;-80
2021/05/06 07:46:14;;;;;;;15.55;12.20;;;8.10;99.90;;;9.23;70.32;99751.81;6191568;23;20510;-81
2021/05/06 07:48:50;;;;;;;16.20;11.55;;;8.10;99.90;;;9.52;70.38;99753.94;6190150;23;20020;-80
2021/05/06 07:51:27;;;;;;;14.15;11.30;;;8.20;99.90;;;10.20;68.88;99756.63;6190563;23;20005;-81
2021/05/06 07:54:05;;;;;;;12.27;10.75;;;8.60;99.90;;;10.77;65.82;99740.59;6189483;23;20009;-80
2021/05/06 07:56:41;;;;;;;13.02;9.63;;;9.20;99.90;;;11.67;63.72;99758.69;6187420;23;20075;-79
2021/05/06 07:59:11;;;;;;;12.20;9.57;;;9.90;99.90;;;12.38;59.91;99739.59;6161411;23;20005;-80
2021/05/06 08:01:44;;;;;;;10.38;9.20;;;10.50;99.90;;;12.21;58.05;99741.09;6160471;23;20013;-80
2021/05/06 08:04:20;;;;;;;10.38;8.07;;;10.60;99.90;;;11.54;59.62;99752.59;6189007;23;20009;-81
2021/05/06 08:06:57;;;;;;;14.20;8.85;;;10.40;99.90;;;10.96;60.30;99738.44;6162413;23;20009;-79
2021/05/06 08:09:32;;;;;;;9.82;7.28;;;9.90;99.90;;;10.36;63.25;99725.75;6187879;23;20438;-79
2021/05/06 08:12:01;;;;;;;10.98;8.50;;;9.40;99.90;;;10.24;62.74;99734.34;6188431;23;20013;-80
2021/05/06 08:14:38;;;;;;;11.63;7.80;;;9.10;99.90;;;10.07;63.71;99746.84;6161704;23;20005;-79
2021/05/06 08:17:16;;;;;;;10.70;7.30;;;9.00;99.90;;;9.97;63.48;99739.13;6187290;23;20037;-80
2021/05/06 08:19:49;;;;;;;11.45;8.95;;;8.80;99.90;;;9.92;64.15;99733.88;6189164;23;20004;-81
2021/05/06 08:22:19;;;;;;;12.80;8.73;;;8.60;99.90;;;9.70;63.86;99731.91;6162371;23;20001;-80
2021/05/06 08:24:48;;;;;;;10.50;9.18;;;8.50;99.90;;;9.71;64.67;99739.91;6162868;23;20037;-81
2021/05/06 08:27:17;;;;;;;11.82;9.05;;;8.40;99.90;;;9.52;65.64;99735.22;6162723;23;20347;-80
2021/05/06 08:29:50;;;;;;;11.50;9.13;;;8.30;99.90;;;9.54;65.71;99748.78;6187450;23;20008;-80
2021/05/06 08:32:17;;;;;;;11.75;9.13;;;8.30;99.90;;;9.69;66.01;99739.50;6163812;23;20361;-80
2021/05/06 08:34:46;;;;;;;9.63;8.18;;;8.30;99.90;;;9.66;63.76;99745.81;6163263;23;20009;-80
2021/05/06 08:37:19;;;;;;;11.48;8.15;;;8.40;99.90;;;9.78;63.84;99744.78;6163532;23;20342;-79
2021/05/06 08:39:55;;;;;;;10.68;8.20;;;8.40;99.90;;;10.27;63.57;99753.13;6164321;23;20009;-79
2021/05/06 08:42:27;;;;;;;13.60;9.80;;;8.70;99.90;;;10.35;63.23;99757.63;6194932;23;20009;-79
2021/05/06 08:45:12;;;;;;;11.15;8.38;;;8.90;99.90;;;10.23;61.61;99764.25;6197344;23;20015;-79
2021/05/06 08:47:57;;;;;;;11.52;8.52;;;8.90;99.90;;;10.26;63.39;99760.69;6165939;23;20088;-79
2021/05/06 08:50:33;;;;;;;11.23;9.63;;;8.90;99.90;;;9.84;63.44;99752.47;6163542;23;20005;-79
2021/05/06 08:53:08;;;;;;;14.00;8.80;;;8.70;99.90;;;9.86;62.71;99758.47;6189218;23;20009;-80
2021/05/06 08:55:39;;;;;;;13.33;9.27;;;8.60;99.90;;;9.64;64.68;99764.06;6164634;23;20091;-79
2021/05/06 08:58:13;;;;;;;13.48;9.20;;;8.50;99.90;;;9.63;64.68;99766.09;6185106;23;20321;-79
2021/05/06 09:03:36;;;;;;;10.98;8.13;;;8.70;99.90;;;10.13;61.54;99773.22;6194788;23;20001;-80
2021/05/06 09:06:26;;;;;;;9.65;7.38;;;8.90;99.90;;;11.11;60.01;99765.34;6192205;23;20052;-80
2021/05/06 09:09:03;;;;;;;8.75;7.00;;;9.50;99.90;;;12.45;55.83;99754.47;6191250;23;20010;-80
2021/05/06 09:11:43;;;;;;;9.77;7.10;;;10.60;99.90;;;12.77;52.18;99760.22;6192254;23;20016;-79
2021/05/06 09:14:12;;;;;;;8.02;6.50;;;11.20;99.90;;;12.90;55.26;99750.25;6193210;23;20009;-80
2021/05/06 09:16:49;;;;;;;7.03;6.32;;;11.60;99.90;;;13.06;52.00;99756.31;6193190;23;20005;-80
2021/05/06 09:19:20;;;;;;;7.40;6.03;;;11.70;99.90;;;13.60;51.90;99737.56;6213506;23;20347;-79
2021/05/06 09:21:59;;;;;;;7.50;5.72;;;12.10;99.90;;;14.55;47.67;99736.63;6188079;23;20123;-79
2021/05/06 09:24:35;;;;;;;9.43;5.60;;;12.70;99.90;;;15.43;47.00;99735.38;6190810;23;20009;-79
2021/05/06 09:27:08;;;;;;;9.10;6.20;;;13.50;96.20;;;15.02;44.94;99719.19;6188343;23;20092;-79
2021/05/06 09:29:49;;;;;;;11.40;6.05;;;13.60;86.00;;;15.04;44.48;99724.38;6187843;23;20016;-79
2021/05/06 09:32:29;;;;;;;8.32;5.60;;;13.80;81.20;;;16.09;43.59;99708.69;6188713;23;20085;-79
2021/05/06 09:34:59;;;;;;;7.55;5.60;;;14.40;80.30;;;14.85;44.76;99703.19;6189310;23;20139;-80
2021/05/06 09:37:41;;;;;;;5.82;5.20;;;13.80;78.00;;;14.34;46.42;99706.63;6189968;23;20036;-80
2021/05/06 09:40:17;;;;;;;9.88;5.63;;;13.10;81.70;;;13.41;46.52;99715.53;6188177;23;20065;-79
2021/05/06 09:42:48;;;;;;;6.80;6.05;;;12.30;82.00;;;13.05;47.65;99721.06;6187347;23;20027;-81
2021/05/06 09:45:29;;;;;;;9.02;6.00;;;11.70;90.10;;;12.38;50.68;99718.00;6188581;23;20462;-79
2021/05/06 09:48:16;;;;;;;8.20;6.65;;;11.00;95.70;;;11.82;52.38;99712.06;6192281;23;20036;-81
2021/05/06 09:50:59;;;;;;;10.57;7.03;;;10.50;99.90;;;11.76;51.78;99708.84;6193529;23;20023;-81
2021/05/06 09:53:31;;;;;;;10.73;7.50;;;10.30;99.90;;;11.89;52.73;99707.31;6192306;23;20001;-79
2021/05/06 09:56:04;;;;;;;7.85;5.47;;;10.30;99.90;;;11.80;52.59;99714.44;6195977;23;20020;-80
2021/05/06 09:58:35;;;;;;;10.20;7.18;;;10.30;99.90;;;11.81;50.89;99721.66;6194064;23;20638;-79
2021/05/06 10:01:15;;;;;;;9.43;6.10;;;10.30;99.90;;;11.40;52.44;99712.50;6193370;23;20013;-80
2021/05/06 10:03:46;;;;;;;6.78;6.07;;;10.30;99.90;;;11.47;53.31;99715.34;6194535;23;20053;-81
2021/05/06 10:06:19;;;;;;;8.60;6.38;;;10.30;99.90;;;11.72;53.13;99712.81;6200307;23;20001;-80
2021/05/06 10:09:01;;;;;;;7.65;6.75;;;10.30;99.90;;;11.67;53.48;99725.13;6199723;23;20005;-80
2021/05/06 10:11:31;;;;;;;11.23;7.63;;;10.30;99.90;;;11.37;56.14;99713.28;6198868;23;20013;-80
2021/05/06 10:14:00;;;;;;;8.55;7.00;;;10.00;99.90;;;11.43;56.16;99718.13;6220633;23;20043;-78
2021/05/06 10:16:27;;;;;;;9.20;7.75;;;10.00;99.90;;;11.41;57.71;99716.91;6194425;23;20411;-80
2021/05/06 10:18:53;;;;;;;9.95;8.02;;;10.00;99.90;;;11.39;57.24;99705.31;6195170;23;20001;-80
2021/05/06 10:21:21;;;;;;;10.90;8.38;;;10.00;99.90;;;11.41;58.74;99712.13;6195968;23;20064;-78
2021/05/06 10:23:53;;;;;;;9.52;8.48;;;9.90;99.90;;;11.31;59.35;99720.41;6196445;23;20017;-80
2021/05/06 10:26:21;;;;;;;11.20;8.77;;;9.80;99.90;;;11.07;58.96;99717.00;6194289;23;20008;-79
2021/05/06 10:28:52;;;;;;;10.82;9.07;;;9.70;99.90;;;10.80;61.72;99715.50;6193945;23;20401;-80
2021/05/06 10:31:18;;;;;;;12.00;9.65;;;9.40;99.90;;;10.80;63.21;99707.13;6192639;23;20005;-80
2021/05/06 10:33:46;;;;;;;11.30;9.35;;;9.40;99.90;;;11.21;64.02;99712.72;6192070;23;20005;-79
2021/05/06 10:36:13;;;;;;;10.68;8.63;;;9.60;99.90;;;11.43;58.90;99701.34;6191248;23;20005;-80
2021/05/06 10:38:42;;;;;;;9.98;8.52;;;9.80;99.90;;;11.55;59.87;99706.66;6188002;23;20343;-80
2021/05/06 10:41:28;;;;;;;13.00;9.93;;;9.90;99.90;;;12.90;60.32;99708.22;6190135;23;20005;-80
2021/05/06 10:44:03;;;;;;;9.23;8.32;;;10.90;99.90;;;13.67;52.80;99701.09;6214198;23;20013;-79
2021/05/06 10:46:56;;;;;;;8.82;7.93;;;11.80;99.90;;;13.96;53.69;99685.03;6190437;23;20024;-81
2021/05/06 10:49:39;;;;;;;6.95;6.05;;;12.10;99.90;;;13.78;51.72;99673.81;6190040;23;20005;-82
2021/05/06 10:52:14;;;;;;;8.05;6.15;;;12.30;99.90;;;14.09;48.35;99675.78;6213107;23;20347;-80
2021/05/06 10:54:48;;;;;;;8.77;6.85;;;12.60;97.80;;;13.84;54.31;99679.84;6193072;23;20051;-80
2021/05/06 10:57:19;;;;;;;5.38;4.80;;;12.60;99.90;;;14.46;48.85;99669.66;6197542;23;20005;-79
2021/05/06 10:59:50;;;;;;;5.97;4.65;;;12.90;98.80;;;15.50;47.78;99671.44;6200308;23;20001;-80
2021/05/06 11:02:38;;;;;;;5.10;3.72;;;13.60;97.10;;;15.99;46.11;99667.34;6187651;23;20013;-80
2021/05/06 11:05:27;;;;;;;4.70;3.45;;;14.20;91.80;;;16.37;41.92;99673.78;6189983;23;20005;-79
2021/05/06 11:08:05;;;;;;;5.18;3.08;;;14.70;78.10;;;16.24;43.70;99665.06;6190247;23;20012;-81
2021/05/06 11:10:47;;;;;;;3.15;2.78;;;14.80;77.30;;;16.61;44.21;99661.41;6188782;23;20009;-79
2021/05/06 11:13:17;;;;;;;5.07;3.00;;;15.20;79.00;;;16.75;42.09;99671.72;6194638;23;20025;-80
2021/05/06 11:15:44;;;;;;;4.53;2.95;;;15.20;73.90;;;16.80;41.78;99662.75;6193083;23;20009;-78
2021/05/06 11:18:38;;;;;;;3.17;2.80;;;15.20;71.30;;;17.26;40.73;99654.44;6190807;23;20020;-79
2021/05/06 11:21:04;;;;;;;4.47;2.38;;;15.60;70.30;;;17.68;37.44;99652.94;6189397;23;20005;-80
2021/05/06 11:23:34;;;;;;;6.28;2.88;;;16.00;62.90;;;17.61;39.15;99657.91;6165916;23;20115;-80
2021/05/06 11:26:07;;;;;;;3.42;3.13;;;16.00;64.80;;;17.75;37.84;99657.69;6190318;23;20005;-79
2021/05/06 11:28:33;;;;;;;6.60;3.63;;;15.90;63.90;;;16.07;40.66;99645.53;6164677;23;20100;-79
2021/05/06 11:30:59;;;;;;;4.18;3.78;;;14.70;66.90;;;14.94;43.71;99640.88;6189795;23;20021;-79
2021/05/06 11:33:28;;;;;;;3.97;3.58;;;13.70;72.00;;;14.67;44.78;99635.03;6164143;23;20004;-79
2021/05/06 11:36:11;;;;;;;5.97;3.72;;;13.30;76.30;;;15.50;44.74;99628.44;6190114;23;20342;-79
2021/05/06 11:38:37;;;;;;;3.97;3.13;;;13.60;77.80;;;16.07;43.23;99621.00;6191015;23;20005;-78
2021/05/06 11:41:16;;;;;;;3.38;2.97;;;14.20;75.70;;;16.60;41.46;99616.75;6190534;23;20015;-81
2021/05/06 11:43:56;;;;;;;5.45;4.28;;;14.50;73.10;;;16.41;42.11;99612.50;6191855;23;20036;-79
2021/05/06 11:46:36;;;;;;;4.82;3.45;;;14.70;71.50;;;17.06;40.15;99610.41;6189771;23;20009;-79
2021/05/06 11:49:11;;;;;;;4.70;3.30;;;15.00;70.40;;;17.28;38.94;99601.16;6162799;23;20071;-78
2021/05/06 11:51:39;;;;;;;5.03;3.15;;;15.40;67.80;;;17.79;38.61;99599.88;6189034;23;20338;-79
2021/05/06 11:54:15;;;;;;;4.82;3.85;;;15.60;66.80;;;17.90;38.21;99597.66;6192252;23;20005;-78
2021/05/06 11:56:57;;;;;;;3.97;3.10;;;15.80;66.50;;;18.12;37.79;99600.06;6189329;23;20040;-78
2021/05/06 11:59:27;;;;;;;3.13;2.67;;;16.00;64.70;;;18.03;35.29;99588.53;6163305;23;20322;-82
2021/05/06 12:01:57;;;;;;;4.55;3.10;;;15.90;59.70;;;17.33;35.56;99589.41;6187998;23;20036;-81
2021/05/06 12:04:34;;;;;;;3.33;2.70;;;15.70;59.30;;;16.98;37.05;99590.00;6162197;23;20013;-80
2021/05/06 12:07:13;;;;;;;4.00;2.85;;;15.40;60.80;;;18.00;36.91;99580.94;6188252;23;20032;-78
2021/05/06 12:09:39;;;;;;;5.57;4.05;;;15.90;62.40;;;18.29;37.49;99579.13;6188813;23;20066;-78
2021/05/06 12:12:05;;;;;;;5.80;2.60;;;16.30;62.50;;;18.58;35.12;99568.03;6188672;23;20025;-81
2021/05/06 12:14:38;;;;;;;6.10;4.53;;;16.30;59.80;;;18.07;35.08;99575.94;6161667;23;20015;-80
2021/05/06 12:17:08;;;;;;;5.25;3.90;;;16.10;59.10;;;17.90;36.05;99562.97;6188612;23;20005;-79
2021/05/06 12:19:48;;;;;;;7.28;3.65;;;16.10;59.20;;;18.05;36.63;99557.81;6189350;23;20011;-78
2021/05/06 12:22:17;;;;;;;4.28;3.20;;;16.00;60.60;;;17.74;35.88;99552.38;6188147;23;20079;-78
2021/05/06 12:24:54;;;;;;;4.07;2.92;;;15.80;59.10;;;17.34;35.57;99548.66;6188346;23;20314;-80
2021/05/06 12:27:29;;;;;;;4.20;2.67;;;15.60;58.00;;;17.14;37.50;99547.81;6161921;23;20572;-80
2021/05/06 12:29:59;;;;;;;5.43;3.17;;;15.20;62.00;;;16.63;36.44;99532.09;6162719;23;20083;-79
2021/05/06 12:32:35;;;;;;;2.75;2.45;;;14.80;59.80;;;16.02;38.69;99539.75;6188729;23;20009;-78
2021/05/06 12:35:03;;;;;;;5.45;2.92;;;14.30;62.40;;;15.74;39.10;99542.94;6188731;23;20003;-80
2021/05/06 12:37:32;;;;;;;3.33;2.33;;;14.10;63.00;;;15.35;39.08;99536.91;6189258;23;20005;-81
2021/05/06 12:39:59;;;;;;;2.70;2.28;;;13.90;62.10;;;15.51;38.73;99537.19;6190141;23;20001;-81
2021/05/06 12:42:37;;;;;;;4.18;2.33;;;14.10;62.10;;;16.31;36.56;99535.34;6190520;23;20072;-79
2021/05/06 12:45:14;;;;;;;2.60;1.95;;;14.60;59.90;;;16.86;36.96;99534.16;6191142;23;20088;-78
2021/05/06 12:47:48;;;;;;;3.95;2.45;;;14.90;60.80;;;16.90;35.55;99536.94;6190487;23;20005;-80
2021/05/06 12:50:26;;;;;;;3.08;1.98;;;15.00;59.00;;;16.83;33.81;99529.38;6190653;23;20008;-80
2021/05/06 12:53:19;;;;;;;3.53;2.60;;;15.10;55.60;;;16.67;37.06;99527.22;6190783;23;20036;-79
2021/05/06 12:55:45;;;;;;;4.20;2.75;;;15.40;58.50;;;17.53;34.81;99529.38;6164323;23;20001;-82
2021/05/06 12:58:13;;;;;;;5.53;2.65;;;15.90;56.80;;;17.10;36.61;99526.53;6184020;23;20016;-80
2021/05/06 13:00:45;;;;;;;2.30;1.92;;;15.90;57.80;;;17.70;33.97;99516.97;6190597;23;20032;-81
2021/05/06 13:03:16;;;;;;;5.03;1.88;;;16.10;55.00;;;17.69;33.27;99516.16;6188737;23;20016;-80
2021/05/06 13:05:48;;;;;;;3.17;2.10;;;16.10;54.40;;;17.97;32.20;99514.00;6191040;23;20032;-79
2021/05/06 13:08:15;;;;;;;2.78;2.10;;;16.20;53.40;;;17.96;32.72;99499.09;6188423;23;20091;-81
2021/05/06 13:10:46;;;;;;;4.20;2.90;;;16.10;54.00;;;17.93;33.55;99499.94;6214730;23;20028;-81
2021/05/06 13:13:46;;;;;;;2.65;2.20;;;16.10;54.90;;;18.20;33.53;99496.97;6193453;23;20344;-80
2021/05/06 13:16:34;;;;;;;2.75;1.58;;;16.40;54.80;;;18.49;30.62;99495.09;6198675;23;20001;-80
2021/05/06 13:19:06;;;;;;;2.88;1.88;;;16.80;50.70;;;19.24;28.92;99485.53;6192355;23;20001;-78
2021/05/06 13:21:33;;;;;;;4.68;1.80;;;17.30;49.40;;;18.25;29.13;99485.94;6190052;23;20155;-80
2021/05/06 13:24:01;;;;;;;1.77;1.10;;;17.00;48.20;;;17.95;30.50;99488.22;6189872;23;20395;-80
2021/05/06 13:26:37;;;;;;;2.20;1.30;;;16.60;49.50;;;18.71;27.85;99484.09;6188766;23;20005;-78
2021/05/06 13:29:15;;;;;;;2.38;1.30;;;16.80;47.20;;;18.92;28.66;99470.19;6188955;23;20500;-80
2021/05/06 13:31:47;;;;;;;2.60;1.30;;;16.80;48.00;;;17.87;29.63;99468.59;6189488;23;20020;-79
2021/05/06 13:34:23;;;;;;;3.40;1.85;;;16.40;48.10;;;16.07;34.02;99465.28;6212347;23;20005;-80
2021/05/06 13:36:49;;;;;;;3.40;1.67;;;15.50;51.80;;;15.75;34.14;99469.31;6188774;23;20087;-82
2021/05/06 13:39:16;;;;;;;2.70;1.50;;;14.80;52.60;;;15.66;34.39;99469.03;6188784;23;20009;-82
2021/05/06 13:41:47;;;;;;;2.47;1.15;;;14.40;54.30;;;15.27;34.17;99468.66;6189798;23;20383;-81
2021/05/06 13:44:22;;;;;;;2.25;1.45;;;14.10;54.10;;;15.01;34.16;99463.69;6189599;23;20047;-81
2021/05/06 13:46:55;;;;;;;;;;;13.70;54.00;;;14.33;36.75;99452.22;6189579;23;20269;-81
2021/05/06 13:49:30;;;;;;;1.70;1.15;;;13.30;56.20;;;14.70;34.81;99454.34;6188606;23;19915;-80
2021/05/06 13:51:59;;;;;;;1.35;0.90;;;13.30;55.70;;;15.30;34.16;99440.50;6188572;23;20016;-81
2021/05/06 13:54:28;;;;;;;3.53;2.20;;;13.60;54.90;;;15.65;35.38;99441.31;6186600;23;20005;-80
2021/05/06 13:56:58;;;;;;;3.92;2.33;;;13.80;57.00;;;15.67;36.42;99434.03;6188098;23;20005;-79